Terminal Aerodrome Forecast
Issued by NWS

Home | Current Version | Previous Version | Text Only | Print | Product List | Glossary On
Versions: 1 2 3 4 5 6 7 8 9 10 11 12 13 14 15 16 17 18 19 20 21
000
FTUS44 KTSA 211135
TAFFYV
TAF
KFYV 211135Z 2112/2212 21008KT P6SM SCT250
     FM212100 17007KT P6SM VCSH OVC050
     FM220100 16007KT 6SM -SHRA OVC050
      TEMPO 2201/2205 3SM -SHRA BKN025
     FM220500 18005KT 5SM -SHRA BR OVC025=

USA.gov is the U.S. government's official web portal to all federal, state and local government web resources and services.